RKPC/CJU METAR and TAF weather

Enter ICAO airport designator
Station Type Date Time Source
RKPC METAR 2019/10/23 13:00 UTC NOAA

RKPC 231300Z 10013KT 9999 -RA FEW010 BKN025 OVC100 20/17 Q1015 NOSIG


Station Type Date Time Source
RKPC Decoded METAR 2019/10/23 13:00 UTC NOAA

Cheju International Airport, Korea, South (RKPC) 33-30N 126-30E 28M
Oct 23, 2019 - 09:00 AM EDT / 2019.10.23 1300 UTC
Wind: from the E (100 degrees) at 15 MPH (13 KT):0
Visibility: greater than 7 mile(s):0
Sky conditions: overcast
Weather: light rain
Temperature: 68 F (20 C)
Dew Point: 62 F (17 C)
Relative Humidity: 82%
Pressure (altimeter): 29.97 in. Hg (1015 hPa)
ob: RKPC 231300Z 10013KT 9999 -RA FEW010 BKN025 OVC100 20/17 Q1015 NOSIG
cycle: 13

Station Type Date Time Source
RKPC TAF 2019/10/23 13:50 UTC NOAA

TAF
AMD RKPC 231250Z 2313/2418 08015G25KT 9999 FEW010 BKN030 OVC100 TN19/2320Z TX21/2406Z
TEMPO 2313/2314 -RA
BECMG 2319/2320 05015G25KT 6000 -RA
BECMG 2404/2405 04010KT NSW
BECMG 2411/2412 34007KT SCT030 BKN180

Example: see airport list